Rechercher aéroport 
image banner adimage banner adimage banner ad
image banner ad

61PA - Father's Love

Situé à Hastings, United States

ICAO - 61PA, IATA -

Données fournies par Airmate  

Information générale

Coordonnées: N40°38'51" W78°43'53"
Élévation : 1770 feet MSL.
 
Voir autres Aéroports à Pennsylvania

Données opérationnelles

Special qualification required
Heure actuelle UTC:
Heure actuelle locale:
METAR: KIDI 150635Z AUTO 00000KT 3/4SM BR SCT032 BKN042 BKN060 13/13 A2992 RMK A01
Voir NOTAMs / SUP AIP / TFR affectant cet aéroport [VIEW]
Fréquences de communication: [VIEW]

Pistes:

Identifiant RWYQFULongueur (ft)Largeur (ft)SurfaceLDA (ft)
131408100GRASS
311408100GRASS

Coordonnées de l'aéroport

Adresse: Hastings United States

Vue satellite de 61PA